Terminal Aerodrome Forecast
Issued by NWS

Home | Current Version | Previous Version | Text Only | Print | Product List | Glossary On
Versions: 1 2 3 4 5 6 7 8 9 10 11 12
000
FTUS42 TJSJ 271140
TAFJSJ
TAF
TJSJ 271140Z 2712/2812 VRB06KT P6SM VCSH FEW025 SCT050 BKN080
     FM271330 09010KT P6SM SCT030 BKN070
     FM272100 11005KT P6SM FEW040=

USA.gov is the U.S. government's official web portal to all federal, state and local government web resources and services.